Time;durP1;ratioP1;P1;durP2;ratioP2;P2;SDS_P1;SDS_P2;PMS_P1;PMS_P2;Temp;Humidity;BMP_temperature;BMP_pressure;BME280_temperature;BME280_humidity;BME280_pressure;Samples;Min_cycle;Max_cycle;Signal;HPM_P1;HPM_P2
2023/12/26 00:00:06;;;;;;;0.60;0.47;;;;;;;;;;4969223;28;20487;-74
2023/12/26 00:02:31;;;;;;;0.47;0.47;;;;;;;;;;4969039;28;20128;-74
2023/12/26 00:04:56;;;;;;;2.33;0.40;;;;;;;;;;4969803;28;20022;-71
2023/12/26 00:07:23;;;;;;;0.45;0.30;;;;;;;;;;4970508;28;20518;-72
2023/12/26 00:09:48;;;;;;;0.73;0.43;;;;;;;;;;4970001;28;20550;-72
2023/12/26 00:12:13;;;;;;;0.30;0.30;;;;;;;;;;4969178;28;20018;-73
2023/12/26 00:14:39;;;;;;;0.35;0.35;;;;;;;;;;4972716;28;20095;-73
2023/12/26 00:17:04;;;;;;;0.85;0.52;;;;;;;;;;4968894;28;20030;-74
2023/12/26 00:19:29;;;;;;;0.63;0.40;;;;;;;;;;4973560;28;20014;-72
2023/12/26 00:21:55;;;;;;;0.57;0.40;;;;;;;;;;4973465;28;20027;-72
2023/12/26 00:24:20;;;;;;;0.40;0.40;;;;;;;;;;4973253;28;20557;-73
2023/12/26 00:26:46;;;;;;;0.30;0.30;;;;;;;;;;4972535;28;20030;-74
2023/12/26 00:29:11;;;;;;;0.50;0.30;;;;;;;;;;4973084;28;20102;-72
2023/12/26 00:31:40;;;;;;;0.40;0.40;;;;;;;;;;4969410;28;20050;-73
2023/12/26 00:34:05;;;;;;;0.40;0.40;;;;;;;;;;4972998;28;20038;-72
2023/12/26 00:36:30;;;;;;;0.35;0.35;;;;;;;;;;4972917;28;20072;-71
2023/12/26 00:38:56;;;;;;;2.00;0.50;;;;;;;;;;4973209;28;20102;-72
2023/12/26 00:41:21;;;;;;;0.68;0.30;;;;;;;;;;4972898;28;20054;-73
2023/12/26 00:43:46;;;;;;;0.20;0.20;;;;;;;;;;4987652;28;20030;-72
2023/12/26 00:46:11;;;;;;;0.30;0.30;;;;;;;;;;4971043;28;20031;-73
2023/12/26 00:48:37;;;;;;;0.30;0.30;;;;;;;;;;4968970;28;20023;-73
2023/12/26 00:51:03;;;;;;;0.50;0.30;;;;;;;;;;4969442;28;20031;-72
2023/12/26 00:53:28;;;;;;;0.38;0.38;;;;;;;;;;4970162;28;20073;-71
2023/12/26 00:55:53;;;;;;;0.52;0.30;;;;;;;;;;4972422;28;20031;-71
2023/12/26 00:58:19;;;;;;;0.60;0.38;;;;;;;;;;4972181;28;20038;-72
2023/12/26 01:00:45;;;;;;;0.22;0.22;;;;;;;;;;4971053;23;20056;-68
2023/12/26 01:03:11;;;;;;;0.30;0.30;;;;;;;;;;4933683;28;20128;-68
2023/12/26 01:05:39;;;;;;;0.30;0.30;;;;;;;;;;4934160;29;20023;-69
2023/12/26 01:08:04;;;;;;;0.40;0.40;;;;;;;;;;4936708;28;20020;-67
2023/12/26 01:10:30;;;;;;;0.20;0.20;;;;;;;;;;4934212;29;20481;-69
2023/12/26 01:12:55;;;;;;;0.40;0.40;;;;;;;;;;4945150;29;20498;-70
2023/12/26 01:15:20;;;;;;;0.60;0.40;;;;;;;;;;4935216;29;20123;-69
2023/12/26 01:17:46;;;;;;;0.95;0.40;;;;;;;;;;4934431;29;20008;-69
2023/12/26 01:20:11;;;;;;;0.68;0.40;;;;;;;;;;4934319;29;20047;-69
2023/12/26 01:22:36;;;;;;;0.25;0.25;;;;;;;;;;4943271;29;20074;-69
2023/12/26 01:25:02;;;;;;;0.40;0.40;;;;;;;;;;4933669;29;20131;-67
2023/12/26 01:27:27;;;;;;;0.40;0.40;;;;;;;;;;4936880;29;20691;-69
2023/12/26 01:29:52;;;;;;;0.30;0.30;;;;;;;;;;4933887;29;20062;-69
2023/12/26 01:32:19;;;;;;;0.40;0.32;;;;;;;;;;4935011;29;20050;-70
2023/12/26 01:34:44;;;;;;;0.30;0.30;;;;;;;;;;4933906;29;20047;-70
2023/12/26 01:37:09;;;;;;;0.30;0.30;;;;;;;;;;4934584;29;20047;-69
2023/12/26 01:39:35;;;;;;;0.30;0.30;;;;;;;;;;4929016;28;20019;-70
2023/12/26 01:42:00;;;;;;;0.30;0.30;;;;;;;;;;4933700;28;20024;-70
2023/12/26 01:44:25;;;;;;;0.40;0.40;;;;;;;;;;4937073;28;20360;-69
2023/12/26 01:46:51;;;;;;;0.47;0.30;;;;;;;;;;4938351;28;20031;-70
2023/12/26 01:49:16;;;;;;;0.30;0.30;;;;;;;;;;4937771;28;20019;-70
2023/12/26 01:51:42;;;;;;;0.32;0.30;;;;;;;;;;4933321;28;20027;-71
2023/12/26 01:54:08;;;;;;;0.50;0.40;;;;;;;;;;4938800;28;20023;-70
2023/12/26 01:56:34;;;;;;;0.30;0.30;;;;;;;;;;4933776;29;20511;-70
2023/12/26 01:58:59;;;;;;;0.43;0.43;;;;;;;;;;4939019;29;20019;-71
2023/12/26 02:01:25;;;;;;;0.40;0.40;;;;;;;;;;4934598;29;20510;-70
2023/12/26 02:03:52;;;;;;;0.40;0.40;;;;;;;;;;4937435;29;20019;-70
2023/12/26 02:06:17;;;;;;;0.52;0.50;;;;;;;;;;4936419;29;20640;-70
2023/12/26 02:08:42;;;;;;;0.40;0.40;;;;;;;;;;4933359;28;20062;-69
2023/12/26 02:11:07;;;;;;;0.40;0.40;;;;;;;;;;4932861;29;20047;-71
2023/12/26 02:13:33;;;;;;;0.40;0.40;;;;;;;;;;4933226;29;20019;-71
2023/12/26 02:16:01;;;;;;;0.40;0.40;;;;;;;;;;4934001;28;20472;-71
2023/12/26 02:18:26;;;;;;;0.43;0.40;;;;;;;;;;4935387;29;20038;-69
2023/12/26 02:20:51;;;;;;;0.60;0.40;;;;;;;;;;4938781;29;20384;-70
2023/12/26 02:23:16;;;;;;;0.40;0.40;;;;;;;;;;4948189;28;20111;-71
2023/12/26 02:25:42;;;;;;;0.40;0.40;;;;;;;;;;4932718;29;20392;-69
2023/12/26 02:28:07;;;;;;;0.52;0.40;;;;;;;;;;4933994;29;20028;-70
2023/12/26 02:30:33;;;;;;;0.47;0.40;;;;;;;;;;4940743;29;20047;-70
2023/12/26 02:33:00;;;;;;;0.57;0.50;;;;;;;;;;4940359;29;20023;-70
2023/12/26 02:35:25;;;;;;;0.50;0.40;;;;;;;;;;4933377;29;20436;-70
2023/12/26 02:37:51;;;;;;;0.40;0.40;;;;;;;;;;4926187;28;20528;-70
2023/12/26 02:40:16;;;;;;;0.40;0.40;;;;;;;;;;4932999;29;20028;-71
2023/12/26 02:42:41;;;;;;;0.40;0.40;;;;;;;;;;4932553;29;20388;-70
2023/12/26 02:45:07;;;;;;;0.40;0.40;;;;;;;;;;4932417;28;20022;-70
2023/12/26 02:47:32;;;;;;;0.38;0.38;;;;;;;;;;4936557;29;20023;-70
2023/12/26 02:49:58;;;;;;;1.92;0.47;;;;;;;;;;4936567;28;20024;-69
2023/12/26 02:52:23;;;;;;;0.40;0.40;;;;;;;;;;4934449;28;20376;-70
2023/12/26 02:54:48;;;;;;;0.52;0.50;;;;;;;;;;4932288;29;20012;-69
2023/12/26 02:57:13;;;;;;;0.60;0.60;;;;;;;;;;4931869;29;20027;-70
2023/12/26 02:59:39;;;;;;;1.13;0.50;;;;;;;;;;4932365;29;20397;-69
2023/12/26 03:02:04;;;;;;;0.90;0.50;;;;;;;;;;4933188;28;20031;-68
2023/12/26 03:04:29;;;;;;;0.50;0.50;;;;;;;;;;4939388;28;20023;-70
2023/12/26 03:06:55;;;;;;;1.48;0.43;;;;;;;;;;4936116;28;20075;-68
2023/12/26 03:09:20;;;;;;;0.50;0.50;;;;;;;;;;4931928;28;20023;-68
2023/12/26 03:11:45;;;;;;;0.40;0.40;;;;;;;;;;4935456;28;20023;-70
2023/12/26 03:14:12;;;;;;;2.17;0.55;;;;;;;;;;4934626;28;20020;-69
2023/12/26 03:16:37;;;;;;;0.32;0.32;;;;;;;;;;4931980;29;20019;-69
2023/12/26 03:19:02;;;;;;;0.30;0.30;;;;;;;;;;4932079;29;20020;-71
2023/12/26 03:21:27;;;;;;;0.73;0.50;;;;;;;;;;4931846;29;20020;-70
2023/12/26 03:23:53;;;;;;;0.82;0.40;;;;;;;;;;4931900;29;20031;-69
2023/12/26 03:26:18;;;;;;;0.40;0.40;;;;;;;;;;4931569;29;20032;-69
2023/12/26 03:28:43;;;;;;;0.30;0.30;;;;;;;;;;4931822;29;20099;-69
2023/12/26 03:31:08;;;;;;;0.60;0.40;;;;;;;;;;4931885;29;20032;-70
2023/12/26 03:33:35;;;;;;;0.40;0.40;;;;;;;;;;4944104;28;20111;-69
2023/12/26 03:36:01;;;;;;;1.50;0.73;;;;;;;;;;4935440;28;20027;-69
2023/12/26 03:38:26;;;;;;;0.50;0.50;;;;;;;;;;4924639;28;20388;-67
2023/12/26 03:40:51;;;;;;;0.30;0.30;;;;;;;;;;4935199;29;20039;-69
2023/12/26 03:43:16;;;;;;;0.50;0.43;;;;;;;;;;4933929;28;20020;-69
2023/12/26 03:45:42;;;;;;;0.95;0.40;;;;;;;;;;4935454;28;20016;-70
2023/12/26 03:48:07;;;;;;;0.70;0.50;;;;;;;;;;4932299;29;20075;-70
2023/12/26 03:50:32;;;;;;;0.30;0.30;;;;;;;;;;4939233;29;20015;-69
2023/12/26 03:52:58;;;;;;;0.32;0.32;;;;;;;;;;4939789;29;20440;-70
2023/12/26 03:55:23;;;;;;;0.93;0.50;;;;;;;;;;4936291;29;20097;-70
2023/12/26 03:57:48;;;;;;;2.95;0.50;;;;;;;;;;4949902;28;20020;-67
2023/12/26 04:00:14;;;;;;;2.20;0.50;;;;;;;;;;4942053;29;20123;-70
2023/12/26 04:02:42;;;;;;;0.70;0.40;;;;;;;;;;4935405;29;20032;-70
2023/12/26 04:05:08;;;;;;;0.40;0.40;;;;;;;;;;4935200;29;20027;-70
2023/12/26 04:07:33;;;;;;;0.40;0.40;;;;;;;;;;4936558;29;20030;-70
2023/12/26 04:09:59;;;;;;;0.98;0.57;;;;;;;;;;4935079;29;20027;-69
2023/12/26 04:12:24;;;;;;;1.05;0.52;;;;;;;;;;4935566;29;20046;-69
2023/12/26 04:14:49;;;;;;;0.45;0.45;;;;;;;;;;4939151;29;20023;-69
2023/12/26 04:17:15;;;;;;;0.32;0.30;;;;;;;;;;4938547;28;20019;-69
2023/12/26 04:19:40;;;;;;;1.25;0.40;;;;;;;;;;4938612;29;20020;-68
2023/12/26 04:22:05;;;;;;;0.38;0.38;;;;;;;;;;4936705;29;20035;-68
2023/12/26 04:24:31;;;;;;;0.52;0.40;;;;;;;;;;4939444;29;20059;-68
2023/12/26 04:26:56;;;;;;;0.32;0.32;;;;;;;;;;4937409;28;20436;-70
2023/12/26 04:29:22;;;;;;;0.40;0.40;;;;;;;;;;4935406;29;20070;-69
2023/12/26 04:31:47;;;;;;;0.50;0.50;;;;;;;;;;4935230;29;20023;-69
2023/12/26 04:34:12;;;;;;;0.30;0.30;;;;;;;;;;4940494;29;20135;-70
2023/12/26 04:36:37;;;;;;;0.30;0.30;;;;;;;;;;4935003;29;20091;-69
2023/12/26 04:39:04;;;;;;;1.92;0.57;;;;;;;;;;4927924;29;20028;-71
2023/12/26 04:41:30;;;;;;;0.30;0.30;;;;;;;;;;4934922;29;20027;-71
2023/12/26 04:43:55;;;;;;;0.20;0.20;;;;;;;;;;4935170;29;20026;-70
2023/12/26 04:46:20;;;;;;;0.30;0.30;;;;;;;;;;4934744;29;20030;-71
2023/12/26 04:48:46;;;;;;;0.30;0.30;;;;;;;;;;4937188;29;20090;-71
2023/12/26 04:51:15;;;;;;;0.30;0.30;;;;;;;;;;4941945;29;20023;-71
2023/12/26 04:53:40;;;;;;;;;;;;;;;;;;4937680;29;20015;-71
2023/12/26 04:56:06;;;;;;;0.30;0.30;;;;;;;;;;4934502;29;19907;-70
2023/12/26 04:58:31;;;;;;;0.35;0.35;;;;;;;;;;4936481;29;20098;-69
2023/12/26 05:00:56;;;;;;;0.30;0.30;;;;;;;;;;4936558;28;20059;-69
2023/12/26 05:03:24;;;;;;;0.40;0.40;;;;;;;;;;4938216;28;20555;-69
2023/12/26 05:05:49;;;;;;;0.22;0.22;;;;;;;;;;4934121;29;20021;-69
2023/12/26 05:08:15;;;;;;;0.30;0.30;;;;;;;;;;4935394;28;20016;-69
2023/12/26 05:10:40;;;;;;;0.30;0.30;;;;;;;;;;4948721;28;20026;-69
2023/12/26 05:13:05;;;;;;;0.30;0.30;;;;;;;;;;4942486;29;20107;-68
2023/12/26 05:15:30;;;;;;;1.17;0.30;;;;;;;;;;4939265;28;20031;-68
2023/12/26 05:17:56;;;;;;;0.30;0.30;;;;;;;;;;4943216;28;20027;-69
2023/12/26 05:20:21;;;;;;;0.30;0.30;;;;;;;;;;4940890;28;20117;-67
2023/12/26 05:22:47;;;;;;;0.20;0.20;;;;;;;;;;4936136;29;20045;-69
2023/12/26 05:25:12;;;;;;;0.20;0.20;;;;;;;;;;4942836;28;20066;-69
2023/12/26 05:27:37;;;;;;;0.40;0.40;;;;;;;;;;4934866;29;20047;-69
2023/12/26 05:30:03;;;;;;;0.20;0.20;;;;;;;;;;4937528;28;20027;-68
2023/12/26 05:32:28;;;;;;;0.30;0.30;;;;;;;;;;4948868;28;20027;-70
2023/12/26 05:34:55;;;;;;;0.30;0.30;;;;;;;;;;4934004;29;20107;-70
2023/12/26 05:37:20;;;;;;;0.30;0.30;;;;;;;;;;4931898;29;20094;-70
2023/12/26 05:39:46;;;;;;;0.20;0.20;;;;;;;;;;4928165;29;20043;-70
2023/12/26 05:42:11;;;;;;;0.30;0.30;;;;;;;;;;4953947;28;20027;-70
2023/12/26 05:44:36;;;;;;;0.30;0.30;;;;;;;;;;4934123;29;20020;-68
2023/12/26 05:47:03;;;;;;;0.60;0.40;;;;;;;;;;4933811;29;20039;-70
2023/12/26 05:49:28;;;;;;;0.25;0.25;;;;;;;;;;4933732;28;20027;-70
2023/12/26 05:51:53;;;;;;;1.30;0.30;;;;;;;;;;4940963;28;20023;-70
2023/12/26 05:54:19;;;;;;;0.20;0.20;;;;;;;;;;4933154;29;20024;-71
2023/12/26 05:56:46;;;;;;;0.30;0.30;;;;;;;;;;4933917;29;20035;-70
2023/12/26 05:59:11;;;;;;;0.30;0.30;;;;;;;;;;4941938;28;20439;-70
2023/12/26 06:01:36;;;;;;;0.30;0.30;;;;;;;;;;4934615;29;20023;-69
2023/12/26 06:04:01;;;;;;;0.22;0.22;;;;;;;;;;4940697;29;20035;-70
2023/12/26 06:06:27;;;;;;;0.20;0.20;;;;;;;;;;4934915;29;20072;-70
2023/12/26 06:08:52;;;;;;;0.30;0.30;;;;;;;;;;4933670;29;20074;-69
2023/12/26 06:11:17;;;;;;;0.30;0.30;;;;;;;;;;4936212;29;20106;-70
2023/12/26 06:13:42;;;;;;;0.30;0.30;;;;;;;;;;4935089;29;20015;-69
2023/12/26 06:16:08;;;;;;;0.30;0.30;;;;;;;;;;4937893;29;20095;-70
2023/12/26 06:18:34;;;;;;;0.20;0.20;;;;;;;;;;4940272;29;20070;-71
2023/12/26 06:20:59;;;;;;;0.22;0.22;;;;;;;;;;4932934;29;20128;-69
2023/12/26 06:23:26;;;;;;;0.30;0.30;;;;;;;;;;4936798;29;20107;-70
2023/12/26 06:25:51;;;;;;;0.30;0.30;;;;;;;;;;4933021;29;20015;-68
2023/12/26 06:28:17;;;;;;;0.30;0.30;;;;;;;;;;4940137;29;20035;-69
2023/12/26 06:30:42;;;;;;;0.75;0.40;;;;;;;;;;4932689;29;20060;-70
2023/12/26 06:33:07;;;;;;;0.30;0.30;;;;;;;;;;4932680;29;20575;-69
2023/12/26 06:35:32;;;;;;;0.30;0.30;;;;;;;;;;4933762;29;20012;-70
2023/12/26 06:37:57;;;;;;;0.30;0.30;;;;;;;;;;4925692;29;20023;-70
2023/12/26 06:40:23;;;;;;;0.38;0.38;;;;;;;;;;4931361;29;20103;-69
2023/12/26 06:42:48;;;;;;;1.05;0.40;;;;;;;;;;4933510;29;20048;-70
2023/12/26 06:45:13;;;;;;;0.30;0.30;;;;;;;;;;4932748;28;20036;-71
2023/12/26 06:47:40;;;;;;;0.30;0.30;;;;;;;;;;4931853;29;20027;-69
2023/12/26 06:50:05;;;;;;;0.30;0.30;;;;;;;;;;4932373;28;20024;-69
2023/12/26 06:52:31;;;;;;;1.35;0.47;;;;;;;;;;4932131;29;20019;-69
2023/12/26 06:54:56;;;;;;;2.05;0.52;;;;;;;;;;4938617;28;20027;-70
2023/12/26 06:57:21;;;;;;;0.95;0.38;;;;;;;;;;4931798;29;20082;-70
2023/12/26 06:59:48;;;;;;;0.30;0.30;;;;;;;;;;4939021;28;20079;-70
2023/12/26 07:02:14;;;;;;;0.30;0.30;;;;;;;;;;4966396;23;20150;-73
2023/12/26 07:04:42;;;;;;;0.40;0.40;;;;;;;;;;4951420;28;20492;-73
2023/12/26 07:07:08;;;;;;;6.10;0.52;;;;;;;;;;4948139;28;20019;-73
2023/12/26 07:09:33;;;;;;;0.30;0.30;;;;;;;;;;4951150;28;20535;-73
2023/12/26 07:11:58;;;;;;;0.30;0.30;;;;;;;;;;4951070;28;20027;-74
2023/12/26 07:14:23;;;;;;;0.40;0.40;;;;;;;;;;4951439;28;20024;-74
2023/12/26 07:16:49;;;;;;;0.60;0.40;;;;;;;;;;4951029;28;20487;-73
2023/12/26 07:19:14;;;;;;;2.45;0.50;;;;;;;;;;4950755;28;20027;-72
2023/12/26 07:21:39;;;;;;;3.40;0.50;;;;;;;;;;4951289;28;20023;-72
2023/12/26 07:24:05;;;;;;;0.30;0.30;;;;;;;;;;4950652;28;20023;-72
2023/12/26 07:26:30;;;;;;;0.30;0.30;;;;;;;;;;4950657;28;20015;-72
2023/12/26 07:28:55;;;;;;;0.30;0.30;;;;;;;;;;4966029;28;20435;-73
2023/12/26 07:31:21;;;;;;;0.40;0.40;;;;;;;;;;4965528;28;20023;-73
2023/12/26 07:33:47;;;;;;;1.80;0.70;;;;;;;;;;4951866;28;20065;-73
2023/12/26 07:36:12;;;;;;;0.52;0.30;;;;;;;;;;4950989;28;20119;-74
2023/12/26 07:38:38;;;;;;;1.23;0.40;;;;;;;;;;4943465;28;20110;-73
2023/12/26 07:41:03;;;;;;;1.05;0.50;;;;;;;;;;4951082;28;20020;-72
2023/12/26 07:43:29;;;;;;;1.63;0.50;;;;;;;;;;4949354;28;20491;-73
2023/12/26 07:45:55;;;;;;;0.60;0.35;;;;;;;;;;4949050;28;20023;-74
2023/12/26 07:48:20;;;;;;;3.88;0.70;;;;;;;;;;4948960;28;20090;-72
2023/12/26 07:50:46;;;;;;;1.30;0.70;;;;;;;;;;4952373;28;20038;-74
2023/12/26 07:53:11;;;;;;;0.40;0.40;;;;;;;;;;4952039;28;20106;-75
2023/12/26 07:55:36;;;;;;;0.30;0.30;;;;;;;;;;4951242;28;20015;-71
2023/12/26 07:58:01;;;;;;;2.15;0.55;;;;;;;;;;4948205;28;20500;-74
2023/12/26 08:00:27;;;;;;;2.08;0.47;;;;;;;;;;4966512;28;20546;-75
2023/12/26 08:02:52;;;;;;;1.23;0.50;;;;;;;;;;4950917;28;20027;-74
2023/12/26 08:05:17;;;;;;;0.50;0.50;;;;;;;;;;4950499;28;20034;-75
2023/12/26 08:07:43;;;;;;;0.52;0.50;;;;;;;;;;4952227;28;20028;-73
2023/12/26 08:10:08;;;;;;;2.33;0.60;;;;;;;;;;4950924;28;20042;-73
2023/12/26 08:12:34;;;;;;;0.50;0.50;;;;;;;;;;4950372;28;20027;-74
2023/12/26 08:14:59;;;;;;;1.30;0.55;;;;;;;;;;4951199;28;20019;-74
2023/12/26 08:17:24;;;;;;;2.47;0.50;;;;;;;;;;4950351;28;20111;-74
2023/12/26 08:19:50;;;;;;;1.65;0.50;;;;;;;;;;4949567;28;20060;-71
2023/12/26 08:22:15;;;;;;;0.73;0.52;;;;;;;;;;4950723;28;20023;-74
2023/12/26 08:24:40;;;;;;;1.80;0.60;;;;;;;;;;4948556;28;20503;-74
2023/12/26 08:27:05;;;;;;;2.75;0.65;;;;;;;;;;4951374;28;20027;-74
2023/12/26 08:29:31;;;;;;;1.55;0.70;;;;;;;;;;4949783;28;20484;-75
2023/12/26 08:31:56;;;;;;;1.48;0.50;;;;;;;;;;4948068;28;20019;-76
2023/12/26 08:34:22;;;;;;;0.85;0.50;;;;;;;;;;4950480;28;20160;-73
2023/12/26 08:36:47;;;;;;;0.60;0.60;;;;;;;;;;4953190;28;20019;-74
2023/12/26 08:39:12;;;;;;;0.95;0.47;;;;;;;;;;4939910;28;20384;-77
2023/12/26 08:41:38;;;;;;;0.70;0.55;;;;;;;;;;4948576;28;20027;-74
2023/12/26 08:44:03;;;;;;;0.95;0.40;;;;;;;;;;4946130;28;20690;-73
2023/12/26 08:46:28;;;;;;;1.63;0.60;;;;;;;;;;4953008;28;20035;-76
2023/12/26 08:48:54;;;;;;;2.42;1.30;;;;;;;;;;4964995;28;20034;-73
2023/12/26 08:51:19;;;;;;;0.68;0.47;;;;;;;;;;4953445;28;20395;-74
2023/12/26 08:53:46;;;;;;;2.00;0.60;;;;;;;;;;4952517;28;20060;-76
2023/12/26 08:56:11;;;;;;;2.67;0.70;;;;;;;;;;4952955;28;20032;-77
2023/12/26 08:58:37;;;;;;;0.88;0.55;;;;;;;;;;4952676;28;20019;-74
2023/12/26 09:01:02;;;;;;;1.98;0.73;;;;;;;;;;4952461;28;20019;-73
2023/12/26 09:03:28;;;;;;;0.55;0.50;;;;;;;;;;4950862;28;20027;-75
2023/12/26 09:05:53;;;;;;;0.40;0.40;;;;;;;;;;4949533;28;20026;-72
2023/12/26 09:08:18;;;;;;;2.53;0.88;;;;;;;;;;4969027;28;20015;-75
2023/12/26 09:10:44;;;;;;;3.67;0.68;;;;;;;;;;4947005;28;20019;-73
2023/12/26 09:13:10;;;;;;;3.17;0.75;;;;;;;;;;4958993;28;20097;-73
2023/12/26 09:15:35;;;;;;;1.65;0.50;;;;;;;;;;4951628;28;20026;-74
2023/12/26 09:18:00;;;;;;;0.98;0.43;;;;;;;;;;4952593;28;20027;-75
2023/12/26 09:20:25;;;;;;;7.05;0.60;;;;;;;;;;4952678;28;20027;-74
2023/12/26 09:22:51;;;;;;;0.85;0.40;;;;;;;;;;4951733;28;20129;-73
2023/12/26 09:25:16;;;;;;;1.20;0.60;;;;;;;;;;4952549;28;20020;-73
2023/12/26 09:27:42;;;;;;;0.55;0.50;;;;;;;;;;4951844;28;20034;-73
2023/12/26 09:30:09;;;;;;;2.78;0.60;;;;;;;;;;4952103;28;20023;-73
2023/12/26 09:32:34;;;;;;;3.80;0.80;;;;;;;;;;4953370;28;20078;-72
2023/12/26 09:34:59;;;;;;;1.13;0.50;;;;;;;;;;4952044;28;20047;-72
2023/12/26 09:37:25;;;;;;;1.15;0.50;;;;;;;;;;4950523;28;20019;-73
2023/12/26 09:39:50;;;;;;;2.88;0.80;;;;;;;;;;4952573;28;20051;-73
2023/12/26 09:42:18;;;;;;;3.47;0.75;;;;;;;;;;4952101;28;20491;-72
2023/12/26 09:44:44;;;;;;;3.10;0.63;;;;;;;;;;4952437;28;20019;-71
2023/12/26 09:47:10;;;;;;;3.25;0.80;;;;;;;;;;4951624;28;20106;-74
2023/12/26 09:49:35;;;;;;;1.15;0.60;;;;;;;;;;4951404;28;20368;-74
2023/12/26 09:52:01;;;;;;;1.58;0.70;;;;;;;;;;4951338;28;20032;-76
2023/12/26 09:54:30;;;;;;;5.40;0.90;;;;;;;;;;4951373;28;20019;-72
2023/12/26 09:56:56;;;;;;;1.13;0.80;;;;;;;;;;4952107;28;20058;-75
2023/12/26 09:59:22;;;;;;;1.13;0.80;;;;;;;;;;4952537;28;20023;-75
2023/12/26 10:01:48;;;;;;;2.47;0.98;;;;;;;;;;4953232;28;20464;-77
2023/12/26 10:04:13;;;;;;;3.45;0.60;;;;;;;;;;4951146;28;20042;-76
2023/12/26 10:06:39;;;;;;;0.60;0.60;;;;;;;;;;4955514;28;20025;-76
2023/12/26 10:09:04;;;;;;;0.77;0.60;;;;;;;;;;4951745;28;20483;-75
2023/12/26 10:11:31;;;;;;;4.60;0.65;;;;;;;;;;4951491;28;20722;-72
2023/12/26 10:13:58;;;;;;;2.15;0.70;;;;;;;;;;4966309;28;20391;-73
2023/12/26 10:16:23;;;;;;;3.55;0.93;;;;;;;;;;4951533;28;20498;-72
2023/12/26 10:18:50;;;;;;;2.53;0.80;;;;;;;;;;4951531;28;20027;-73
2023/12/26 10:21:15;;;;;;;3.95;0.90;;;;;;;;;;4965451;28;20114;-72
2023/12/26 10:23:40;;;;;;;1.48;0.80;;;;;;;;;;4949010;28;20151;-71
2023/12/26 10:26:05;;;;;;;2.22;0.75;;;;;;;;;;4948638;28;20027;-74
2023/12/26 10:28:41;;;;;;;3.40;0.98;;;;;;;;;;4949906;28;20031;-72
2023/12/26 10:31:18;;;;;;;2.10;1.17;;;;;;;;;;4945876;28;20611;-72
2023/12/26 10:33:43;;;;;;;3.22;0.80;;;;;;;;;;4950610;28;20023;-72
2023/12/26 10:36:10;;;;;;;1.63;0.73;;;;;;;;;;4951014;28;20027;-73
2023/12/26 10:38:36;;;;;;;2.42;0.90;;;;;;;;;;4950625;28;20019;-72
2023/12/26 10:41:06;;;;;;;3.67;0.80;;;;;;;;;;4966033;28;20024;-72
2023/12/26 10:43:32;;;;;;;1.67;0.82;;;;;;;;;;4951560;28;20105;-72
2023/12/26 10:45:58;;;;;;;1.88;0.60;;;;;;;;;;4950134;28;20046;-74
2023/12/26 10:48:27;;;;;;;3.00;0.70;;;;;;;;;;4951407;28;20020;-72
2023/12/26 10:50:54;;;;;;;2.35;0.70;;;;;;;;;;4951269;28;20035;-75
2023/12/26 10:53:21;;;;;;;1.98;0.82;;;;;;;;;;4950126;28;20518;-73
2023/12/26 10:55:46;;;;;;;1.27;0.68;;;;;;;;;;4944673;29;20020;-74
2023/12/26 10:58:15;;;;;;;2.15;1.17;;;;;;;;;;4949203;28;20050;-73
2023/12/26 11:00:53;;;;;;;0.98;0.57;;;;;;;;;;4944559;28;20434;-74
2023/12/26 13:51:26;;;;;;;4.35;1.20;;;;;;;;;;4944126;28;20030;-70
2023/12/26 13:53:55;;;;;;;5.25;1.45;;;;;;;;;;4949886;28;20039;-73
2023/12/26 13:56:20;;;;;;;5.15;1.30;;;;;;;;;;4966097;28;20051;-71
2023/12/26 13:58:46;;;;;;;6.00;1.40;;;;;;;;;;4953368;28;20046;-73
2023/12/26 14:01:12;;;;;;;3.78;1.30;;;;;;;;;;4952607;28;20022;-71
2023/12/26 14:03:44;;;;;;;5.80;1.30;;;;;;;;;;4967312;28;20030;-75
2023/12/26 14:06:12;;;;;;;6.15;1.52;;;;;;;;;;4951402;28;20031;-74
2023/12/26 14:08:37;;;;;;;6.50;1.40;;;;;;;;;;4963340;28;20526;-73
2023/12/26 14:11:06;;;;;;;8.98;1.33;;;;;;;;;;4960750;28;20031;-72
2023/12/26 14:13:31;;;;;;;3.03;1.00;;;;;;;;;;4944956;28;20062;-73
2023/12/26 14:15:57;;;;;;;7.80;1.40;;;;;;;;;;4966329;28;20054;-74
2023/12/26 14:18:22;;;;;;;5.45;1.25;;;;;;;;;;4971636;28;20487;-72
2023/12/26 14:20:50;;;;;;;11.18;1.60;;;;;;;;;;4949788;28;20142;-73
2023/12/26 14:23:16;;;;;;;6.38;1.20;;;;;;;;;;4965524;28;20503;-76
2023/12/26 14:25:41;;;;;;;5.65;1.30;;;;;;;;;;4966106;28;20038;-71
2023/12/26 14:28:13;;;;;;;1.93;0.90;;;;;;;;;;4951004;28;20034;-74
2023/12/26 14:30:38;;;;;;;10.00;2.22;;;;;;;;;;4943775;29;20249;-74
2023/12/26 14:33:07;;;;;;;3.13;1.10;;;;;;;;;;4957495;28;20053;-72
2023/12/26 14:35:32;;;;;;;8.13;1.02;;;;;;;;;;4947951;28;20386;-71
2023/12/26 14:37:57;;;;;;;3.03;1.17;;;;;;;;;;4946649;28;20524;-70
2023/12/26 14:40:22;;;;;;;5.75;2.28;;;;;;;;;;4966822;28;20253;-72
2023/12/26 14:42:47;;;;;;;3.58;0.90;;;;;;;;;;4958127;28;20097;-71
2023/12/26 14:45:13;;;;;;;7.05;1.33;;;;;;;;;;4954627;28;20488;-70
2023/12/26 14:47:38;;;;;;;6.07;1.52;;;;;;;;;;4950195;28;20464;-70
2023/12/26 14:50:03;;;;;;;6.03;1.10;;;;;;;;;;4952476;28;20039;-70
2023/12/26 14:52:28;;;;;;;6.20;1.20;;;;;;;;;;4951438;28;20289;-70
2023/12/26 14:54:53;;;;;;;9.55;1.50;;;;;;;;;;4951307;28;20253;-71
2023/12/26 14:57:19;;;;;;;8.07;1.30;;;;;;;;;;4953429;28;20110;-72
2023/12/26 14:59:44;;;;;;;5.30;1.48;;;;;;;;;;4954171;28;20336;-72
2023/12/26 15:02:10;;;;;;;7.93;1.20;;;;;;;;;;4954106;28;20023;-72
2023/12/26 15:04:35;;;;;;;6.40;1.15;;;;;;;;;;4943325;28;20016;-70
2023/12/26 15:07:01;;;;;;;3.63;1.27;;;;;;;;;;4960456;28;20471;-71
2023/12/26 15:09:27;;;;;;;3.33;1.20;;;;;;;;;;4960744;28;20019;-70
2023/12/26 15:11:53;;;;;;;7.63;1.55;;;;;;;;;;4961511;28;20023;-71
2023/12/26 15:14:18;;;;;;;3.60;1.23;;;;;;;;;;4950549;28;20127;-68
2023/12/26 15:16:43;;;;;;;5.53;1.60;;;;;;;;;;4952077;28;20233;-70
2023/12/26 15:19:08;;;;;;;5.60;1.10;;;;;;;;;;4953533;28;20015;-69
2023/12/26 15:21:43;;;;;;;7.75;1.75;;;;;;;;;;4952381;29;20061;-68
2023/12/26 15:24:09;;;;;;;3.80;1.45;;;;;;;;;;4950313;28;20391;-70
2023/12/26 15:26:35;;;;;;;8.13;1.73;;;;;;;;;;4944069;29;20115;-70
2023/12/26 15:29:00;;;;;;;4.18;1.30;;;;;;;;;;4952182;28;20142;-71
2023/12/26 15:31:25;;;;;;;8.88;1.80;;;;;;;;;;4952668;28;20463;-67
2023/12/26 15:33:51;;;;;;;6.43;1.73;;;;;;;;;;4954908;28;20015;-69
2023/12/26 15:36:16;;;;;;;9.75;1.90;;;;;;;;;;4952764;28;20054;-69
2023/12/26 15:38:41;;;;;;;5.82;1.50;;;;;;;;;;4953464;28;20090;-70
2023/12/26 15:41:07;;;;;;;6.45;1.38;;;;;;;;;;4951171;28;20027;-70
2023/12/26 15:43:32;;;;;;;8.27;1.70;;;;;;;;;;4941898;28;20019;-69
2023/12/26 15:45:57;;;;;;;3.08;1.10;;;;;;;;;;4943784;28;20031;-68
2023/12/26 15:48:22;;;;;;;6.50;1.23;;;;;;;;;;4946026;28;20506;-71
2023/12/26 15:50:48;;;;;;;5.82;1.20;;;;;;;;;;4961707;28;20041;-67
2023/12/26 15:53:13;;;;;;;6.10;1.20;;;;;;;;;;4944978;28;20043;-69
2023/12/26 15:55:38;;;;;;;8.20;1.52;;;;;;;;;;4944016;28;20292;-69
2023/12/26 15:58:03;;;;;;;5.93;1.52;;;;;;;;;;4947562;28;20023;-71
2023/12/26 16:00:29;;;;;;;5.38;1.73;;;;;;;;;;4945457;28;20034;-70
2023/12/26 16:02:54;;;;;;;3.30;0.90;;;;;;;;;;4946795;28;20152;-69
2023/12/26 16:05:19;;;;;;;7.55;1.38;;;;;;;;;;4945744;28;20513;-70
2023/12/26 16:07:45;;;;;;;5.75;1.20;;;;;;;;;;4959869;28;20038;-68
2023/12/26 16:10:11;;;;;;;7.45;1.58;;;;;;;;;;4960805;28;20027;-67
2023/12/26 16:12:38;;;;;;;3.33;1.38;;;;;;;;;;4945157;28;20035;-70
2023/12/26 16:15:04;;;;;;;5.43;1.30;;;;;;;;;;4944559;28;20016;-69
2023/12/26 16:17:29;;;;;;;9.20;1.55;;;;;;;;;;4946207;28;20022;-69
2023/12/26 16:19:54;;;;;;;9.23;1.70;;;;;;;;;;4948387;28;20061;-67
2023/12/26 16:22:19;;;;;;;4.28;1.27;;;;;;;;;;4945095;28;21425;-66
2023/12/26 16:24:44;;;;;;;3.22;1.02;;;;;;;;;;4946006;28;20069;-67
2023/12/26 16:27:10;;;;;;;5.70;1.42;;;;;;;;;;4946163;28;20028;-68
2023/12/26 16:29:36;;;;;;;3.10;1.02;;;;;;;;;;4947017;28;20420;-69
2023/12/26 16:32:01;;;;;;;4.75;1.15;;;;;;;;;;4947928;28;20571;-69
2023/12/26 16:34:30;;;;;;;8.50;1.50;;;;;;;;;;4946540;28;21178;-69
2023/12/26 16:36:55;;;;;;;4.30;1.38;;;;;;;;;;4946660;28;20035;-69
2023/12/26 16:39:20;;;;;;;4.80;1.52;;;;;;;;;;4945777;28;20050;-70
2023/12/26 16:42:00;;;;;;;11.73;1.88;;;;;;;;;;4946999;28;20035;-70
2023/12/26 16:44:25;;;;;;;5.22;1.50;;;;;;;;;;4944832;28;20055;-69
2023/12/26 16:46:50;;;;;;;8.18;1.42;;;;;;;;;;4946333;28;20039;-70
2023/12/26 16:49:15;;;;;;;8.13;1.70;;;;;;;;;;4946814;28;20035;-70
2023/12/26 16:51:41;;;;;;;7.35;1.60;;;;;;;;;;4946198;29;20054;-69
2023/12/26 16:54:08;;;;;;;15.07;1.63;;;;;;;;;;4945576;28;20090;-69
2023/12/26 16:56:33;;;;;;;5.93;1.50;;;;;;;;;;4944016;28;20015;-68
2023/12/26 16:58:58;;;;;;;8.93;1.70;;;;;;;;;;4960784;28;20050;-70
2023/12/26 17:01:23;;;;;;;6.13;1.30;;;;;;;;;;4946063;28;20046;-70
2023/12/26 17:03:49;;;;;;;11.68;1.95;;;;;;;;;;4944718;28;20019;-69
2023/12/26 17:06:14;;;;;;;7.00;1.42;;;;;;;;;;4945268;28;20035;-70
2023/12/26 17:08:39;;;;;;;6.50;1.45;;;;;;;;;;4945633;28;20015;-69
2023/12/26 17:11:08;;;;;;;4.80;1.33;;;;;;;;;;4946074;29;20054;-68
2023/12/26 17:13:33;;;;;;;4.47;1.13;;;;;;;;;;4945139;28;20492;-70
2023/12/26 17:15:58;;;;;;;7.63;1.60;;;;;;;;;;4945784;28;20059;-71
2023/12/26 17:18:24;;;;;;;6.68;1.38;;;;;;;;;;4946334;28;20633;-69
2023/12/26 17:20:49;;;;;;;7.22;1.50;;;;;;;;;;4946482;28;20023;-69